sensor_id;sensor_type;location;lat;lon;timestamp;pressure;altitude;pressure_sealevel;temperature;humidity
21960;BME280;11144;43.030;25.108;2022-12-18T00:01:14;100056.31;;;10.45;100.00
21960;BME280;11144;43.030;25.108;2022-12-18T00:02:48;100046.56;;;10.47;100.00
21960;BME280;11144;43.030;25.108;2022-12-18T00:04:24;100058.06;;;10.46;100.00
21960;BME280;11144;43.030;25.108;2022-12-18T00:05:57;100057.16;;;10.47;100.00
21960;BME280;11144;43.030;25.108;2022-12-18T00:07:31;100051.97;;;10.43;100.00
21960;BME280;11144;43.030;25.108;2022-12-18T00:09:04;100048.50;;;10.41;100.00
21960;BME280;11144;43.030;25.108;2022-12-18T00:10:37;100050.25;;;10.40;100.00
21960;BME280;11144;43.030;25.108;2022-12-18T00:12:10;100054.63;;;10.41;100.00
21960;BME280;11144;43.030;25.108;2022-12-18T00:13:46;100045.97;;;10.36;100.00
21960;BME280;11144;43.030;25.108;2022-12-18T00:15:20;100060.75;;;10.45;100.00
21960;BME280;11144;43.030;25.108;2022-12-18T00:16:53;100059.84;;;10.44;100.00
21960;BME280;11144;43.030;25.108;2022-12-18T00:18:25;100067.81;;;10.43;100.00
21960;BME280;11144;43.030;25.108;2022-12-18T00:20:00;100063.34;;;10.46;100.00
21960;BME280;11144;43.030;25.108;2022-12-18T00:21:33;100065.09;;;10.47;100.00
21960;BME280;11144;43.030;25.108;2022-12-18T00:23:07;100060.00;;;10.38;100.00
21960;BME280;11144;43.030;25.108;2022-12-18T00:24:40;100067.16;;;10.33;100.00
21960;BME280;11144;43.030;25.108;2022-12-18T00:26:15;100071.53;;;10.34;100.00
21960;BME280;11144;43.030;25.108;2022-12-18T00:27:47;100068.88;;;10.35;100.00
21960;BME280;11144;43.030;25.108;2022-12-18T00:29:21;100062.75;;;10.33;100.00
21960;BME280;11144;43.030;25.108;2022-12-18T00:31:00;100076.88;;;10.31;100.00
21960;BME280;11144;43.030;25.108;2022-12-18T00:32:32;100073.47;;;10.27;100.00
21960;BME280;11144;43.030;25.108;2022-12-18T00:34:06;100081.41;;;10.26;100.00
21960;BME280;11144;43.030;25.108;2022-12-18T00:35:45;100083.03;;;10.33;100.00
21960;BME280;11144;43.030;25.108;2022-12-18T00:37:18;100084.00;;;10.29;100.00
21960;BME280;11144;43.030;25.108;2022-12-18T00:38:56;100077.97;;;10.24;100.00
21960;BME280;11144;43.030;25.108;2022-12-18T00:40:29;100085.94;;;10.21;100.00
21960;BME280;11144;43.030;25.108;2022-12-18T00:42:02;100087.66;;;10.23;100.00
21960;BME280;11144;43.030;25.108;2022-12-18T00:43:53;100085.09;;;10.19;100.00
21960;BME280;11144;43.030;25.108;2022-12-18T00:45:26;100085.16;;;10.16;100.00
21960;BME280;11144;43.030;25.108;2022-12-18T00:47:00;100090.31;;;10.22;100.00
21960;BME280;11144;43.030;25.108;2022-12-18T00:48:32;100085.16;;;10.16;100.00
21960;BME280;11144;43.030;25.108;2022-12-18T00:50:06;100097.50;;;10.17;100.00
21960;BME280;11144;43.030;25.108;2022-12-18T00:51:41;100095.66;;;10.19;100.00
21960;BME280;11144;43.030;25.108;2022-12-18T00:53:14;100102.63;;;10.23;100.00
21960;BME280;11144;43.030;25.108;2022-12-18T00:54:47;100106.13;;;10.25;100.00
21960;BME280;11144;43.030;25.108;2022-12-18T00:56:19;100105.25;;;10.24;100.00
21960;BME280;11144;43.030;25.108;2022-12-18T00:57:52;100109.69;;;10.24;100.00
21960;BME280;11144;43.030;25.108;2022-12-18T00:59:26;100107.91;;;10.23;100.00
21960;BME280;11144;43.030;25.108;2022-12-18T01:00:59;100108.88;;;10.19;100.00
21960;BME280;11144;43.030;25.108;2022-12-18T01:02:32;100107.06;;;10.22;100.00
21960;BME280;11144;43.030;25.108;2022-12-18T01:04:06;100099.09;;;10.24;100.00
21960;BME280;11144;43.030;25.108;2022-12-18T01:05:40;100104.28;;;10.27;100.00
21960;BME280;11144;43.030;25.108;2022-12-18T01:07:14;100088.66;;;10.18;100.00
21960;BME280;11144;43.030;25.108;2022-12-18T01:08:48;100102.56;;;10.26;100.00
21960;BME280;11144;43.030;25.108;2022-12-18T01:10:21;100111.25;;;10.31;100.00
21960;BME280;11144;43.030;25.108;2022-12-18T01:11:54;100109.47;;;10.33;100.00
21960;BME280;11144;43.030;25.108;2022-12-18T01:13:28;100107.78;;;10.29;100.00
21960;BME280;11144;43.030;25.108;2022-12-18T01:15:00;100118.44;;;10.26;100.00
21960;BME280;11144;43.030;25.108;2022-12-18T01:16:33;100111.41;;;10.25;100.00
21960;BME280;11144;43.030;25.108;2022-12-18T01:18:08;100115.84;;;10.23;100.00
21960;BME280;11144;43.030;25.108;2022-12-18T01:19:41;100118.44;;;10.26;100.00
21960;BME280;11144;43.030;25.108;2022-12-18T01:21:16;100114.06;;;10.23;100.00
21960;BME280;11144;43.030;25.108;2022-12-18T01:22:50;100113.22;;;10.21;100.00
21960;BME280;11144;43.030;25.108;2022-12-18T01:24:24;100116.81;;;10.19;100.00
21960;BME280;11144;43.030;25.108;2022-12-18T01:25:57;100121.16;;;10.21;100.00
21960;BME280;11144;43.030;25.108;2022-12-18T01:27:30;100119.50;;;10.16;100.00
21960;BME280;11144;43.030;25.108;2022-12-18T01:29:04;100124.06;;;10.09;100.00
21960;BME280;11144;43.030;25.108;2022-12-18T01:30:37;100118.75;;;10.11;100.00
21960;BME280;11144;43.030;25.108;2022-12-18T01:32:09;100124.13;;;10.05;100.00
21960;BME280;11144;43.030;25.108;2022-12-18T01:33:43;100125.94;;;10.03;100.00
21960;BME280;11144;43.030;25.108;2022-12-18T01:35:15;100132.97;;;10.04;100.00
21960;BME280;11144;43.030;25.108;2022-12-18T01:36:48;100126.06;;;9.97;100.00
21960;BME280;11144;43.030;25.108;2022-12-18T01:38:25;100134.00;;;9.95;100.00
21960;BME280;11144;43.030;25.108;2022-12-18T01:39:57;100138.44;;;9.95;100.00
21960;BME280;11144;43.030;25.108;2022-12-18T01:41:32;100129.69;;;9.91;100.00
21960;BME280;11144;43.030;25.108;2022-12-18T01:43:19;100128.88;;;9.89;100.00
21960;BME280;11144;43.030;25.108;2022-12-18T01:44:57;100136.78;;;9.91;100.00
21960;BME280;11144;43.030;25.108;2022-12-18T01:46:29;100128.91;;;9.88;100.00
21960;BME280;11144;43.030;25.108;2022-12-18T01:48:06;100128.00;;;9.89;100.00
21960;BME280;11144;43.030;25.108;2022-12-18T01:49:43;100133.22;;;9.92;100.00
21960;BME280;11144;43.030;25.108;2022-12-18T01:51:16;100126.25;;;9.88;100.00
21960;BME280;11144;43.030;25.108;2022-12-18T01:52:52;100133.31;;;9.86;100.00
21960;BME280;11144;43.030;25.108;2022-12-18T01:54:27;100117.53;;;9.83;100.00
21960;BME280;11144;43.030;25.108;2022-12-18T01:56:01;100133.47;;;9.80;100.00
21960;BME280;11144;43.030;25.108;2022-12-18T01:57:35;100128.09;;;9.83;100.00
21960;BME280;11144;43.030;25.108;2022-12-18T01:59:10;100122.78;;;9.84;100.00
21960;BME280;11144;43.030;25.108;2022-12-18T02:00:44;100130.81;;;9.81;100.00
21960;BME280;11144;43.030;25.108;2022-12-18T02:02:17;100130.81;;;9.81;100.00
21960;BME280;11144;43.030;25.108;2022-12-18T02:03:52;100133.47;;;9.80;100.00
21960;BME280;11144;43.030;25.108;2022-12-18T02:05:34;100123.88;;;9.76;100.00
21960;BME280;11144;43.030;25.108;2022-12-18T02:07:19;100137.91;;;9.78;100.00
21960;BME280;11144;43.030;25.108;2022-12-18T02:09:03;100127.38;;;9.75;100.00
21960;BME280;11144;43.030;25.108;2022-12-18T02:10:47;100145.75;;;9.81;100.00
21960;BME280;11144;43.030;25.108;2022-12-18T02:12:33;100143.13;;;9.81;100.00
21960;BME280;11144;43.030;25.108;2022-12-18T02:14:17;100149.38;;;9.77;100.00
21960;BME280;11144;43.030;25.108;2022-12-18T02:15:58;100138.75;;;9.80;100.00
21960;BME280;11144;43.030;25.108;2022-12-18T02:17:38;100145.81;;;9.78;100.00
21960;BME280;11144;43.030;25.108;2022-12-18T02:19:26;100149.22;;;9.83;100.00
21960;BME280;11144;43.030;25.108;2022-12-18T02:21:09;100141.28;;;9.84;100.00
21960;BME280;11144;43.030;25.108;2022-12-18T02:23:01;100145.88;;;9.75;100.00
21960;BME280;11144;43.030;25.108;2022-12-18T02:24:46;100146.69;;;9.80;100.00
21960;BME280;11144;43.030;25.108;2022-12-18T02:26:26;100154.59;;;9.80;100.00
21960;BME280;11144;43.030;25.108;2022-12-18T02:28:02;100151.09;;;9.78;100.00
21960;BME280;11144;43.030;25.108;2022-12-18T02:29:38;100151.16;;;9.75;100.00
21960;BME280;11144;43.030;25.108;2022-12-18T02:31:16;100151.22;;;9.72;100.00
21960;BME280;11144;43.030;25.108;2022-12-18T02:32:57;100158.25;;;9.73;100.00
21960;BME280;11144;43.030;25.108;2022-12-18T02:34:37;100153.03;;;9.70;100.00
21960;BME280;11144;43.030;25.108;2022-12-18T02:36:12;100148.72;;;9.66;100.00
21960;BME280;11144;43.030;25.108;2022-12-18T02:37:47;100161.91;;;9.66;100.00
21960;BME280;11144;43.030;25.108;2022-12-18T02:39:22;100164.50;;;9.69;100.00
21960;BME280;11144;43.030;25.108;2022-12-18T02:41:03;100155.72;;;9.67;100.00
21960;BME280;11144;43.030;25.108;2022-12-18T02:42:38;100162.75;;;9.66;100.00
21960;BME280;11144;43.030;25.108;2022-12-18T02:44:14;100161.00;;;9.67;100.00
21960;BME280;11144;43.030;25.108;2022-12-18T02:45:49;100172.34;;;9.72;100.00
21960;BME280;11144;43.030;25.108;2022-12-18T02:47:25;100167.19;;;9.66;100.00
21960;BME280;11144;43.030;25.108;2022-12-18T02:49:11;100173.44;;;9.60;100.00
21960;BME280;11144;43.030;25.108;2022-12-18T02:50:48;100170.78;;;9.62;100.00
21960;BME280;11144;43.030;25.108;2022-12-18T02:52:31;100176.06;;;9.62;100.00
21960;BME280;11144;43.030;25.108;2022-12-18T02:54:18;100177.03;;;9.58;100.00
21960;BME280;11144;43.030;25.108;2022-12-18T02:56:00;100180.56;;;9.55;100.00
21960;BME280;11144;43.030;25.108;2022-12-18T02:57:40;100180.66;;;9.52;100.00
21960;BME280;11144;43.030;25.108;2022-12-18T02:59:18;100174.53;;;9.49;100.00
21960;BME280;11144;43.030;25.108;2022-12-18T03:01:01;100180.84;;;9.40;100.00
21960;BME280;11144;43.030;25.108;2022-12-18T03:02:41;100192.38;;;9.35;100.00
21960;BME280;11144;43.030;25.108;2022-12-18T03:04:20;100197.66;;;9.35;100.00
21960;BME280;11144;43.030;25.108;2022-12-18T03:06:00;100208.31;;;9.29;100.00
21960;BME280;11144;43.030;25.108;2022-12-18T03:07:40;100208.31;;;9.29;100.00
21960;BME280;11144;43.030;25.108;2022-12-18T03:09:20;100198.75;;;9.23;100.00
21960;BME280;11144;43.030;25.108;2022-12-18T03:10:57;100200.44;;;9.26;100.00
21960;BME280;11144;43.030;25.108;2022-12-18T03:12:36;100206.59;;;9.28;100.00
21960;BME280;11144;43.030;25.108;2022-12-18T03:14:13;100207.47;;;9.27;100.00
21960;BME280;11144;43.030;25.108;2022-12-18T03:15:52;100207.50;;;9.24;100.00
21960;BME280;11144;43.030;25.108;2022-12-18T03:17:28;100218.97;;;9.23;100.00
21960;BME280;11144;43.030;25.108;2022-12-18T03:19:06;100223.31;;;9.25;100.00
21960;BME280;11144;43.030;25.108;2022-12-18T03:20:44;100228.66;;;9.22;100.00
21960;BME280;11144;43.030;25.108;2022-12-18T03:22:24;100231.34;;;9.21;100.00
21960;BME280;11144;43.030;25.108;2022-12-18T03:24:00;100232.22;;;9.18;100.00
21960;BME280;11144;43.030;25.108;2022-12-18T03:25:37;100240.13;;;9.20;100.00
21960;BME280;11144;43.030;25.108;2022-12-18T03:27:14;100240.97;;;9.22;100.00
21960;BME280;11144;43.030;25.108;2022-12-18T03:28:53;100250.66;;;9.20;100.00
21960;BME280;11144;43.030;25.108;2022-12-18T03:30:32;100254.25;;;9.16;100.00
21960;BME280;11144;43.030;25.108;2022-12-18T03:32:10;100241.97;;;9.15;100.00
21960;BME280;11144;43.030;25.108;2022-12-18T03:33:47;100256.06;;;9.14;100.00
21960;BME280;11144;43.030;25.108;2022-12-18T03:35:30;100248.22;;;9.08;100.00
21960;BME280;11144;43.030;25.108;2022-12-18T03:37:05;100252.72;;;9.03;100.00
21960;BME280;11144;43.030;25.108;2022-12-18T03:38:41;100259.75;;;9.01;100.00
21960;BME280;11144;43.030;25.108;2022-12-18T03:40:15;100273.88;;;8.97;100.00
21960;BME280;11144;43.030;25.108;2022-12-18T03:41:51;100269.53;;;8.94;100.00
21960;BME280;11144;43.030;25.108;2022-12-18T03:43:44;100271.38;;;8.89;100.00
21960;BME280;11144;43.030;25.108;2022-12-18T03:45:24;100281.00;;;8.92;100.00
21960;BME280;11144;43.030;25.108;2022-12-18T03:47:05;100275.78;;;8.89;100.00
21960;BME280;11144;43.030;25.108;2022-12-18T03:48:43;100286.31;;;8.90;100.00
21960;BME280;11144;43.030;25.108;2022-12-18T03:50:25;100282.75;;;8.93;100.00
21960;BME280;11144;43.030;25.108;2022-12-18T03:52:03;100279.25;;;8.91;100.00
21960;BME280;11144;43.030;25.108;2022-12-18T03:53:41;100278.47;;;8.83;100.00
21960;BME280;11144;43.030;25.108;2022-12-18T03:55:17;100291.63;;;8.86;100.00
21960;BME280;11144;43.030;25.108;2022-12-18T03:57:01;100279.41;;;8.80;100.00
21960;BME280;11144;43.030;25.108;2022-12-18T03:58:40;100290.91;;;8.75;100.00
21960;BME280;11144;43.030;25.108;2022-12-18T04:00:20;100291.75;;;8.77;100.00
21960;BME280;11144;43.030;25.108;2022-12-18T04:02:02;100289.97;;;8.77;100.00
21960;BME280;11144;43.030;25.108;2022-12-18T04:03:37;100294.28;;;8.83;100.00
21960;BME280;11144;43.030;25.108;2022-12-18T04:05:12;100291.63;;;8.86;100.00
21960;BME280;11144;43.030;25.108;2022-12-18T04:06:48;100302.97;;;8.92;100.00
21960;BME280;11144;43.030;25.108;2022-12-18T04:08:24;100309.09;;;8.96;100.00
21960;BME280;11144;43.030;25.108;2022-12-18T04:10:07;100308.19;;;8.97;100.00
21960;BME280;11144;43.030;25.108;2022-12-18T04:11:46;100312.53;;;9.01;100.00
21960;BME280;11144;43.030;25.108;2022-12-18T04:13:24;100313.41;;;9.00;100.00
21960;BME280;11144;43.030;25.108;2022-12-18T04:15:02;100328.34;;;9.01;100.00
21960;BME280;11144;43.030;25.108;2022-12-18T04:16:36;100324.91;;;8.96;100.00
21960;BME280;11144;43.030;25.108;2022-12-18T04:18:13;100324.06;;;8.91;100.00
21960;BME280;11144;43.030;25.108;2022-12-18T04:19:48;100324.06;;;8.91;100.00
21960;BME280;11144;43.030;25.108;2022-12-18T04:21:22;100325.00;;;8.87;100.00
21960;BME280;11144;43.030;25.108;2022-12-18T04:22:56;100326.81;;;8.85;100.00
21960;BME280;11144;43.030;25.108;2022-12-18T04:24:30;100332.94;;;8.85;100.00
21960;BME280;11144;43.030;25.108;2022-12-18T04:26:11;100329.50;;;8.79;100.00
21960;BME280;11144;43.030;25.108;2022-12-18T04:28:16;100330.44;;;8.75;100.00
21960;BME280;11144;43.030;25.108;2022-12-18T04:29:50;100349.72;;;8.80;100.00
21960;BME280;11144;43.030;25.108;2022-12-18T04:31:23;100351.53;;;8.75;100.00
21960;BME280;11144;43.030;25.108;2022-12-18T04:32:57;100341.09;;;8.69;100.00
21960;BME280;11144;43.030;25.108;2022-12-18T04:34:32;100349.03;;;8.66;100.00
21960;BME280;11144;43.030;25.108;2022-12-18T04:36:07;100349.88;;;8.65;100.00
21960;BME280;11144;43.030;25.108;2022-12-18T04:37:40;100347.25;;;8.65;100.00
21960;BME280;11144;43.030;25.108;2022-12-18T04:39:14;100355.22;;;8.62;100.00
21960;BME280;11144;43.030;25.108;2022-12-18T04:40:48;100356.09;;;8.61;100.00
21960;BME280;11144;43.030;25.108;2022-12-18T04:42:28;100355.25;;;8.59;100.00
21960;BME280;11144;43.030;25.108;2022-12-18T04:44:00;100355.25;;;8.59;100.00
21960;BME280;11144;43.030;25.108;2022-12-18T04:45:34;100360.50;;;8.62;100.00
21960;BME280;11144;43.030;25.108;2022-12-18T04:47:07;100357.91;;;8.56;100.00
21960;BME280;11144;43.030;25.108;2022-12-18T04:48:39;100364.06;;;8.58;100.00
21960;BME280;11144;43.030;25.108;2022-12-18T04:50:14;100368.47;;;8.56;100.00
21960;BME280;11144;43.030;25.108;2022-12-18T04:51:49;100363.16;;;8.59;100.00
21960;BME280;11144;43.030;25.108;2022-12-18T04:53:23;100358.78;;;8.58;100.00
21960;BME280;11144;43.030;25.108;2022-12-18T04:54:56;100368.41;;;8.63;100.00
21960;BME280;11144;43.030;25.108;2022-12-18T04:56:31;100371.91;;;8.61;100.00
21960;BME280;11144;43.030;25.108;2022-12-18T04:58:04;100378.09;;;8.58;100.00
21960;BME280;11144;43.030;25.108;2022-12-18T04:59:36;100386.00;;;8.60;100.00
21960;BME280;11144;43.030;25.108;2022-12-18T05:01:10;100392.97;;;8.62;100.00
21960;BME280;11144;43.030;25.108;2022-12-18T05:02:44;100388.63;;;8.60;100.00
21960;BME280;11144;43.030;25.108;2022-12-18T05:04:17;100379.78;;;8.64;100.00
21960;BME280;11144;43.030;25.108;2022-12-18T05:05:52;100377.19;;;8.61;100.00
21960;BME280;11144;43.030;25.108;2022-12-18T05:07:24;100387.66;;;8.67;100.00
21960;BME280;11144;43.030;25.108;2022-12-18T05:08:57;100384.16;;;8.65;100.00
21960;BME280;11144;43.030;25.108;2022-12-18T05:10:30;100385.94;;;8.64;100.00
21960;BME280;11144;43.030;25.108;2022-12-18T05:12:09;100390.31;;;8.67;100.00
21960;BME280;11144;43.030;25.108;2022-12-18T05:13:42;100398.25;;;8.62;100.00
21960;BME280;11144;43.030;25.108;2022-12-18T05:15:15;100385.09;;;8.61;100.00
21960;BME280;11144;43.030;25.108;2022-12-18T05:16:48;100401.78;;;8.61;100.00
21960;BME280;11144;43.030;25.108;2022-12-18T05:18:22;100407.06;;;8.63;100.00
21960;BME280;11144;43.030;25.108;2022-12-18T05:19:54;100402.69;;;8.62;100.00
21960;BME280;11144;43.030;25.108;2022-12-18T05:21:29;100409.72;;;8.60;100.00
21960;BME280;11144;43.030;25.108;2022-12-18T05:23:02;100417.63;;;8.60;100.00
21960;BME280;11144;43.030;25.108;2022-12-18T05:24:34;100407.94;;;8.62;100.00
21960;BME280;11144;43.030;25.108;2022-12-18T05:26:08;100411.59;;;8.46;100.00
21960;BME280;11144;43.030;25.108;2022-12-18T05:27:44;100411.59;;;8.46;100.00
21960;BME280;11144;43.030;25.108;2022-12-18T05:29:16;100416.03;;;8.45;100.00
21960;BME280;11144;43.030;25.108;2022-12-18T05:30:50;100416.88;;;8.46;100.00
21960;BME280;11144;43.030;25.108;2022-12-18T05:32:23;100411.59;;;8.46;100.00
21960;BME280;11144;43.030;25.108;2022-12-18T05:33:55;100424.00;;;8.38;100.00
21960;BME280;11144;43.030;25.108;2022-12-18T05:35:29;100421.34;;;8.41;100.00
21960;BME280;11144;43.030;25.108;2022-12-18T05:37:03;100415.19;;;8.39;100.00
21960;BME280;11144;43.030;25.108;2022-12-18T05:38:38;100421.34;;;8.38;100.00
21960;BME280;11144;43.030;25.108;2022-12-18T05:40:12;100426.59;;;8.42;100.00
21960;BME280;11144;43.030;25.108;2022-12-18T05:41:45;100428.38;;;8.39;100.00
21960;BME280;11144;43.030;25.108;2022-12-18T05:43:19;100433.69;;;8.36;100.00
21960;BME280;11144;43.030;25.108;2022-12-18T05:44:53;100432.78;;;8.40;100.00
21960;BME280;11144;43.030;25.108;2022-12-18T05:46:26;100434.50;;;8.41;100.00
21960;BME280;11144;43.030;25.108;2022-12-18T05:48:00;100440.63;;;8.43;100.00
21960;BME280;11144;43.030;25.108;2022-12-18T05:49:33;100436.25;;;8.42;100.00
21960;BME280;11144;43.030;25.108;2022-12-18T05:51:06;100443.22;;;8.49;100.00
21960;BME280;11144;43.030;25.108;2022-12-18T05:52:41;100443.22;;;8.49;100.00
21960;BME280;11144;43.030;25.108;2022-12-18T05:54:14;100447.56;;;8.53;100.00
21960;BME280;11144;43.030;25.108;2022-12-18T05:55:48;100444.91;;;8.56;100.00
21960;BME280;11144;43.030;25.108;2022-12-18T05:57:20;100451.09;;;8.52;100.00
21960;BME280;11144;43.030;25.108;2022-12-18T05:58:54;100448.44;;;8.55;100.00
21960;BME280;11144;43.030;25.108;2022-12-18T06:00:26;100449.28;;;8.57;100.00
21960;BME280;11144;43.030;25.108;2022-12-18T06:02:00;100446.66;;;8.54;100.00
21960;BME280;11144;43.030;25.108;2022-12-18T06:03:33;100446.72;;;8.51;100.00
21960;BME280;11144;43.030;25.108;2022-12-18T06:05:06;100457.16;;;8.60;100.00
21960;BME280;11144;43.030;25.108;2022-12-18T06:06:39;100451.00;;;8.61;100.00
21960;BME280;11144;43.030;25.108;2022-12-18T06:08:16;100460.63;;;8.65;100.00
21960;BME280;11144;43.030;25.108;2022-12-18T06:09:50;100458.88;;;8.64;100.00
21960;BME280;11144;43.030;25.108;2022-12-18T06:11:26;100458.84;;;8.67;100.00
21960;BME280;11144;43.030;25.108;2022-12-18T06:13:02;100459.75;;;8.67;100.00
21960;BME280;11144;43.030;25.108;2022-12-18T06:14:36;100464.09;;;8.70;100.00
21960;BME280;11144;43.030;25.108;2022-12-18T06:16:09;100458.81;;;8.70;100.00
21960;BME280;11144;43.030;25.108;2022-12-18T06:17:43;100467.56;;;8.75;100.00
21960;BME280;11144;43.030;25.108;2022-12-18T06:19:17;100478.06;;;8.78;100.00
21960;BME280;11144;43.030;25.108;2022-12-18T06:20:55;100474.53;;;8.79;100.00
21960;BME280;11144;43.030;25.108;2022-12-18T06:22:30;100473.59;;;8.84;100.00
21960;BME280;11144;43.030;25.108;2022-12-18T06:24:06;100478.09;;;8.75;100.00
21960;BME280;11144;43.030;25.108;2022-12-18T06:25:40;100485.16;;;8.73;100.00
21960;BME280;11144;43.030;25.108;2022-12-18T06:27:17;100492.19;;;8.74;100.00
21960;BME280;11144;43.030;25.108;2022-12-18T06:28:50;100481.56;;;8.80;100.00
21960;BME280;11144;43.030;25.108;2022-12-18T06:30:25;100492.00;;;8.92;100.00
21960;BME280;11144;43.030;25.108;2022-12-18T06:31:57;100492.88;;;8.91;100.00
21960;BME280;11144;43.030;25.108;2022-12-18T06:33:32;100499.03;;;8.91;100.00
21960;BME280;11144;43.030;25.108;2022-12-18T06:35:06;100502.56;;;8.89;100.00
21960;BME280;11144;43.030;25.108;2022-12-18T06:36:40;100512.19;;;8.93;100.00
21960;BME280;11144;43.030;25.108;2022-12-18T06:38:13;100506.03;;;8.94;100.00
21960;BME280;11144;43.030;25.108;2022-12-18T06:39:48;100513.94;;;8.92;100.00
21960;BME280;11144;43.030;25.108;2022-12-18T06:41:25;100519.22;;;8.95;100.00
21960;BME280;11144;43.030;25.108;2022-12-18T06:43:20;100514.00;;;8.89;100.00
21960;BME280;11144;43.030;25.108;2022-12-18T06:44:53;100517.47;;;8.93;100.00
21960;BME280;11144;43.030;25.108;2022-12-18T06:46:27;100520.06;;;8.99;100.00
21960;BME280;11144;43.030;25.108;2022-12-18T06:48:01;100518.28;;;8.98;100.00
21960;BME280;11144;43.030;25.108;2022-12-18T06:49:35;100533.28;;;8.97;100.00
21960;BME280;11144;43.030;25.108;2022-12-18T06:51:08;100522.72;;;8.96;100.00
21960;BME280;11144;43.030;25.108;2022-12-18T06:52:41;100535.91;;;8.96;100.00
21960;BME280;11144;43.030;25.108;2022-12-18T06:54:16;100528.84;;;8.98;100.00
21960;BME280;11144;43.030;25.108;2022-12-18T06:55:51;100538.47;;;9.03;100.00
21960;BME280;11144;43.030;25.108;2022-12-18T06:57:24;100540.25;;;9.01;100.00
21960;BME280;11144;43.030;25.108;2022-12-18T06:58:58;100525.34;;;8.99;100.00
21960;BME280;11144;43.030;25.108;2022-12-18T07:00:31;100534.94;;;9.06;100.00
21960;BME280;11144;43.030;25.108;2022-12-18T07:02:05;100536.69;;;9.07;100.00
21960;BME280;11144;43.030;25.108;2022-12-18T07:03:39;100535.81;;;9.05;100.00
21960;BME280;11144;43.030;25.108;2022-12-18T07:05:14;100546.31;;;9.11;100.00
21960;BME280;11144;43.030;25.108;2022-12-18T07:06:47;100544.50;;;9.14;100.00
21960;BME280;11144;43.030;25.108;2022-12-18T07:08:41;100543.66;;;9.14;100.00
21960;BME280;11144;43.030;25.108;2022-12-18T07:10:14;100556.84;;;9.14;100.00
21960;BME280;11144;43.030;25.108;2022-12-18T07:11:49;100546.25;;;9.17;100.00
21960;BME280;11144;43.030;25.108;2022-12-18T07:13:22;100549.72;;;9.22;100.00
21960;BME280;11144;43.030;25.108;2022-12-18T07:14:56;100550.50;;;9.30;100.00
21960;BME280;11144;43.030;25.108;2022-12-18T07:16:29;100551.28;;;9.38;100.00
21960;BME280;11144;43.030;25.108;2022-12-18T07:18:03;100553.00;;;9.42;100.00
21960;BME280;11144;43.030;25.108;2022-12-18T07:19:35;100555.63;;;9.42;100.00
21960;BME280;11144;43.030;25.108;2022-12-18T07:21:10;100558.25;;;9.45;100.00
21960;BME280;11144;43.030;25.108;2022-12-18T07:22:44;100558.22;;;9.48;100.00
21960;BME280;11144;43.030;25.108;2022-12-18T07:24:22;100559.97;;;9.49;100.00
21960;BME280;11144;43.030;25.108;2022-12-18T07:25:59;100559.94;;;9.52;100.00
21960;BME280;11144;43.030;25.108;2022-12-18T07:27:34;100550.25;;;9.54;100.00
21960;BME280;11144;43.030;25.108;2022-12-18T07:29:08;100543.13;;;9.59;100.00
21960;BME280;11144;43.030;25.108;2022-12-18T07:30:41;100545.72;;;9.62;100.00
21960;BME280;11144;43.030;25.108;2022-12-18T07:32:15;100543.06;;;9.65;100.00
21960;BME280;11144;43.030;25.108;2022-12-18T07:33:49;100546.50;;;9.71;100.00
21960;BME280;11144;43.030;25.108;2022-12-18T07:35:23;100557.78;;;9.82;100.00
21960;BME280;11144;43.030;25.108;2022-12-18T07:36:57;100548.91;;;9.88;100.00
21960;BME280;11144;43.030;25.108;2022-12-18T07:38:31;100553.38;;;9.83;100.00
21960;BME280;11144;43.030;25.108;2022-12-18T07:40:06;100547.22;;;9.84;100.00
21960;BME280;11144;43.030;25.108;2022-12-18T07:41:41;100547.16;;;9.87;100.00
21960;BME280;11144;43.030;25.108;2022-12-18T07:43:21;100558.53;;;9.93;100.00
21960;BME280;11144;43.030;25.108;2022-12-18T07:44:54;100546.34;;;9.82;100.00
21960;BME280;11144;43.030;25.108;2022-12-18T07:46:31;100559.50;;;9.85;100.00
21960;BME280;11144;43.030;25.108;2022-12-18T07:48:05;100557.81;;;9.81;100.00
21960;BME280;11144;43.030;25.108;2022-12-18T07:49:38;100564.03;;;9.77;100.00
21960;BME280;11144;43.030;25.108;2022-12-18T07:51:14;100561.56;;;9.62;100.00
21960;BME280;11144;43.030;25.108;2022-12-18T07:52:49;100563.19;;;9.72;100.00
21960;BME280;11144;43.030;25.108;2022-12-18T07:54:24;100563.25;;;9.69;100.00
21960;BME280;11144;43.030;25.108;2022-12-18T07:56:04;100570.22;;;9.76;100.00
21960;BME280;11144;43.030;25.108;2022-12-18T07:58:00;100563.09;;;9.81;100.00
21960;BME280;11144;43.030;25.108;2022-12-18T07:59:36;100568.25;;;9.90;100.00
21960;BME280;11144;43.030;25.108;2022-12-18T08:01:11;100574.25;;;10.01;100.00
21960;BME280;11144;43.030;25.108;2022-12-18T08:02:45;100582.16;;;10.07;100.00
21960;BME280;11144;43.030;25.108;2022-12-18T08:04:19;100577.78;;;10.06;100.00
21960;BME280;11144;43.030;25.108;2022-12-18T08:05:52;100575.13;;;10.06;100.00
21960;BME280;11144;43.030;25.108;2022-12-18T08:07:26;100578.59;;;10.05;100.00
21960;BME280;11144;43.030;25.108;2022-12-18T08:09:00;100572.47;;;10.07;100.00
21960;BME280;11144;43.030;25.108;2022-12-18T08:10:34;100575.09;;;10.04;100.00
21960;BME280;11144;43.030;25.108;2022-12-18T08:12:07;100585.69;;;10.06;100.00
21960;BME280;11144;43.030;25.108;2022-12-18T08:13:40;100575.97;;;10.08;100.00